sensor_id;sensor_type;location;lat;lon;timestamp;pressure;altitude;pressure_sealevel;temperature;humidity
30856;BME280;17570;0.000;0.000;2023-02-12T00:01:12;97945.26;;;10.72;29.47
30856;BME280;17570;0.000;0.000;2023-02-12T00:03:40;97942.84;;;10.69;29.86
30856;BME280;17570;0.000;0.000;2023-02-12T00:06:07;97947.93;;;10.71;30.08
30856;BME280;17570;0.000;0.000;2023-02-12T00:08:35;97945.15;;;10.74;29.28
30856;BME280;17570;0.000;0.000;2023-02-12T00:11:07;97940.67;;;10.76;29.73
30856;BME280;17570;0.000;0.000;2023-02-12T00:13:35;97940.06;;;10.72;29.28
30856;BME280;17570;0.000;0.000;2023-02-12T00:16:04;97935.89;;;10.70;29.94
30856;BME280;17570;0.000;0.000;2023-02-12T00:18:32;97937.06;;;10.52;29.67
30856;BME280;17570;0.000;0.000;2023-02-12T00:21:00;97944.38;;;10.59;30.04
30856;BME280;17570;0.000;0.000;2023-02-12T00:23:27;97954.54;;;10.62;29.67
30856;BME280;17570;0.000;0.000;2023-02-12T00:25:55;97957.89;;;10.64;29.47
30856;BME280;17570;0.000;0.000;2023-02-12T00:28:22;97952.23;;;10.58;29.47
30856;BME280;17570;0.000;0.000;2023-02-12T00:30:51;97949.41;;;10.75;29.67
30856;BME280;17570;0.000;0.000;2023-02-12T00:33:18;97949.50;;;10.46;29.68
30856;BME280;17570;0.000;0.000;2023-02-12T00:35:53;97948.09;;;10.55;29.77
30856;BME280;17570;0.000;0.000;2023-02-12T00:38:14;97942.09;;;10.67;29.56
30856;BME280;17570;0.000;0.000;2023-02-12T00:40:44;97949.93;;;10.53;29.62
30856;BME280;17570;0.000;0.000;2023-02-12T00:43:11;97940.59;;;10.51;29.86
30856;BME280;17570;0.000;0.000;2023-02-12T00:45:39;97938.08;;;10.49;29.94
30856;BME280;17570;0.000;0.000;2023-02-12T00:48:07;97945.56;;;10.54;29.74
30856;BME280;17570;0.000;0.000;2023-02-12T00:50:34;97947.44;;;10.52;29.86
30856;BME280;17570;0.000;0.000;2023-02-12T00:53:02;97950.69;;;10.55;30.22
30856;BME280;17570;0.000;0.000;2023-02-12T00:55:29;97956.70;;;10.56;29.84
30856;BME280;17570;0.000;0.000;2023-02-12T00:57:58;97950.58;;;10.57;30.45
30856;BME280;17570;0.000;0.000;2023-02-12T01:00:27;97935.19;;;10.54;29.95
30856;BME280;17570;0.000;0.000;2023-02-12T01:02:56;97938.94;;;10.50;29.68
30856;BME280;17570;0.000;0.000;2023-02-12T01:05:23;97920.95;;;10.46;29.47
30856;BME280;17570;0.000;0.000;2023-02-12T01:07:52;97925.06;;;10.36;30.17
30856;BME280;17570;0.000;0.000;2023-02-12T01:10:19;97917.06;;;10.39;29.75
30856;BME280;17570;0.000;0.000;2023-02-12T01:12:47;97926.72;;;10.37;29.88
30856;BME280;17570;0.000;0.000;2023-02-12T01:15:15;97927.27;;;10.42;29.96
30856;BME280;17570;0.000;0.000;2023-02-12T01:17:43;97945.39;;;10.57;30.37
30856;BME280;17570;0.000;0.000;2023-02-12T01:20:12;97945.25;;;10.45;30.42
30856;BME280;17570;0.000;0.000;2023-02-12T01:22:40;97941.13;;;10.56;29.60
30856;BME280;17570;0.000;0.000;2023-02-12T01:25:08;97933.50;;;10.40;29.65
30856;BME280;17570;0.000;0.000;2023-02-12T01:27:35;97929.13;;;10.40;29.56
30856;BME280;17570;0.000;0.000;2023-02-12T01:30:04;97929.41;;;10.63;29.63
30856;BME280;17570;0.000;0.000;2023-02-12T01:32:33;97930.98;;;10.38;29.48
30856;BME280;17570;0.000;0.000;2023-02-12T01:35:00;97937.83;;;10.39;29.53
30856;BME280;17570;0.000;0.000;2023-02-12T01:37:28;97923.14;;;10.53;29.88
30856;BME280;17570;0.000;0.000;2023-02-12T01:39:55;97919.31;;;10.58;29.32
30856;BME280;17570;0.000;0.000;2023-02-12T01:42:23;97917.02;;;10.54;29.38
30856;BME280;17570;0.000;0.000;2023-02-12T01:47:36;97912.17;;;10.62;29.81
30856;BME280;17570;0.000;0.000;2023-02-12T01:50:04;97912.04;;;10.51;30.01
30856;BME280;17570;0.000;0.000;2023-02-12T01:52:33;97923.48;;;10.34;29.93
30856;BME280;17570;0.000;0.000;2023-02-12T01:55:03;97909.62;;;10.47;29.83
30856;BME280;17570;0.000;0.000;2023-02-12T01:57:31;97916.88;;;10.42;29.90
30856;BME280;17570;0.000;0.000;2023-02-12T01:59:59;97905.80;;;10.53;30.23
30856;BME280;17570;0.000;0.000;2023-02-12T02:02:29;97907.81;;;10.62;29.73
30856;BME280;17570;0.000;0.000;2023-02-12T02:04:58;97911.34;;;10.34;29.96
30856;BME280;17570;0.000;0.000;2023-02-12T02:07:27;97898.36;;;10.34;30.23
30856;BME280;17570;0.000;0.000;2023-02-12T02:09:56;97902.63;;;10.21;30.13
30856;BME280;17570;0.000;0.000;2023-02-12T02:12:26;97902.94;;;10.31;30.25
30856;BME280;17570;0.000;0.000;2023-02-12T02:15:11;97902.91;;;10.58;29.78
30856;BME280;17570;0.000;0.000;2023-02-12T02:17:41;97907.48;;;10.27;29.96
30856;BME280;17570;0.000;0.000;2023-02-12T02:33:21;97903.34;;;10.91;29.43
30856;BME280;17570;0.000;0.000;2023-02-12T02:35:36;97904.36;;;10.89;29.44
30856;BME280;17570;0.000;0.000;2023-02-12T02:38:06;97917.60;;;10.71;29.47
30856;BME280;17570;0.000;0.000;2023-02-12T02:40:36;97908.94;;;10.58;29.67
30856;BME280;17570;0.000;0.000;2023-02-12T02:43:09;97903.26;;;10.66;29.49
30856;BME280;17570;0.000;0.000;2023-02-12T02:45:34;97914.34;;;10.55;29.90
30856;BME280;17570;0.000;0.000;2023-02-12T02:48:03;97919.48;;;10.42;30.17
30856;BME280;17570;0.000;0.000;2023-02-12T02:50:31;97912.73;;;10.40;30.02
30856;BME280;17570;0.000;0.000;2023-02-12T02:53:12;97908.08;;;10.45;30.18
30856;BME280;17570;0.000;0.000;2023-02-12T02:55:36;97914.88;;;10.60;29.89
30856;BME280;17570;0.000;0.000;2023-02-12T02:58:05;97912.81;;;10.65;29.90
30856;BME280;17570;0.000;0.000;2023-02-12T03:03:05;97911.63;;;10.84;29.77
30856;BME280;17570;0.000;0.000;2023-02-12T03:05:32;97915.16;;;10.83;29.89
30856;BME280;17570;0.000;0.000;2023-02-12T03:08:02;97915.47;;;10.91;29.49
30856;BME280;17570;0.000;0.000;2023-02-12T03:10:30;97915.11;;;10.70;30.12
30856;BME280;17570;0.000;0.000;2023-02-12T03:13:10;97910.49;;;10.88;29.29
30856;BME280;17570;0.000;0.000;2023-02-12T03:15:34;97915.84;;;10.72;29.55
30856;BME280;17570;0.000;0.000;2023-02-12T03:18:03;97903.94;;;10.82;29.42
30856;BME280;17570;0.000;0.000;2023-02-12T03:20:32;97896.64;;;10.75;29.71
30856;BME280;17570;0.000;0.000;2023-02-12T03:23:01;97901.12;;;10.85;29.53
30856;BME280;17570;0.000;0.000;2023-02-12T03:25:41;97900.85;;;11.03;29.56
30856;BME280;17570;0.000;0.000;2023-02-12T03:28:06;97897.84;;;11.09;29.48
30856;BME280;17570;0.000;0.000;2023-02-12T03:30:51;97899.58;;;10.95;29.87
30856;BME280;17570;0.000;0.000;2023-02-12T03:33:24;97897.76;;;11.10;29.80
30856;BME280;17570;0.000;0.000;2023-02-12T03:35:47;97893.78;;;10.92;30.11
30856;BME280;17570;0.000;0.000;2023-02-12T03:40:56;97890.58;;;11.01;29.99
30856;BME280;17570;0.000;0.000;2023-02-12T03:43:26;97887.15;;;11.01;29.92
30856;BME280;17570;0.000;0.000;2023-02-12T03:45:50;97894.64;;;11.05;29.65
30856;BME280;17570;0.000;0.000;2023-02-12T03:48:32;97903.45;;;11.03;29.86
30856;BME280;17570;0.000;0.000;2023-02-12T03:51:03;97892.50;;;10.85;30.09
30856;BME280;17570;0.000;0.000;2023-02-12T03:53:30;97897.59;;;10.86;30.15
30856;BME280;17570;0.000;0.000;2023-02-12T03:56:03;97896.16;;;10.95;30.01
30856;BME280;17570;0.000;0.000;2023-02-12T03:58:31;97900.73;;;11.04;30.10
30856;BME280;17570;0.000;0.000;2023-02-12T04:00:59;97898.75;;;10.95;30.18
30856;BME280;17570;0.000;0.000;2023-02-12T04:03:28;97889.11;;;10.97;30.25
30856;BME280;17570;0.000;0.000;2023-02-12T04:05:55;97894.62;;;11.18;29.85
30856;BME280;17570;0.000;0.000;2023-02-12T04:08:23;97893.28;;;11.12;29.93
30856;BME280;17570;0.000;0.000;2023-02-12T04:10:56;97894.22;;;11.11;30.05
30856;BME280;17570;0.000;0.000;2023-02-12T04:13:27;97900.66;;;11.06;30.18
30856;BME280;17570;0.000;0.000;2023-02-12T04:16:04;97901.19;;;11.11;30.23
30856;BME280;17570;0.000;0.000;2023-02-12T04:18:37;97902.20;;;11.08;30.35
30856;BME280;17570;0.000;0.000;2023-02-12T04:21:11;97894.08;;;11.00;30.64
30856;BME280;17570;0.000;0.000;2023-02-12T04:23:54;97905.55;;;11.10;30.20
30856;BME280;17570;0.000;0.000;2023-02-12T04:26:27;97895.68;;;11.15;30.46
30856;BME280;17570;0.000;0.000;2023-02-12T04:28:58;97888.70;;;11.03;30.50
30856;BME280;17570;0.000;0.000;2023-02-12T04:31:28;97892.78;;;11.20;30.55
30856;BME280;17570;0.000;0.000;2023-02-12T04:33:57;97894.41;;;11.08;30.44
30856;BME280;17570;0.000;0.000;2023-02-12T04:36:24;97892.36;;;11.26;30.16
30856;BME280;17570;0.000;0.000;2023-02-12T04:38:57;97897.87;;;11.34;30.13
30856;BME280;17570;0.000;0.000;2023-02-12T04:41:21;97887.79;;;11.30;30.26
30856;BME280;17570;0.000;0.000;2023-02-12T04:43:49;97901.30;;;11.35;30.41
30856;BME280;17570;0.000;0.000;2023-02-12T04:46:16;97895.89;;;11.25;30.36
30856;BME280;17570;0.000;0.000;2023-02-12T04:48:58;97903.17;;;11.58;30.09
30856;BME280;17570;0.000;0.000;2023-02-12T04:51:22;97902.03;;;11.62;31.61
30856;BME280;17570;0.000;0.000;2023-02-12T04:53:50;97897.24;;;11.31;30.62
30856;BME280;17570;0.000;0.000;2023-02-12T04:56:17;97895.98;;;11.23;30.96
30856;BME280;17570;0.000;0.000;2023-02-12T04:58:44;97888.62;;;11.30;30.64
30856;BME280;17570;0.000;0.000;2023-02-12T05:01:12;97887.58;;;11.20;30.98
30856;BME280;17570;0.000;0.000;2023-02-12T05:03:39;97891.10;;;11.32;30.68
30856;BME280;17570;0.000;0.000;2023-02-12T05:06:09;97893.40;;;11.62;32.37
30856;BME280;17570;0.000;0.000;2023-02-12T05:08:37;97887.57;;;11.45;30.79
30856;BME280;17570;0.000;0.000;2023-02-12T05:11:05;97897.56;;;11.39;30.82
30856;BME280;17570;0.000;0.000;2023-02-12T05:13:33;97901.11;;;11.38;31.06
30856;BME280;17570;0.000;0.000;2023-02-12T05:16:04;97905.45;;;11.63;31.49
30856;BME280;17570;0.000;0.000;2023-02-12T05:18:30;97898.20;;;11.42;31.12
30856;BME280;17570;0.000;0.000;2023-02-12T05:20:58;97894.14;;;11.38;31.14
30856;BME280;17570;0.000;0.000;2023-02-12T05:23:27;97902.34;;;11.70;32.29
30856;BME280;17570;0.000;0.000;2023-02-12T05:25:57;97912.94;;;11.67;33.11
30856;BME280;17570;0.000;0.000;2023-02-12T05:28:23;97905.14;;;11.55;31.19
30856;BME280;17570;0.000;0.000;2023-02-12T05:30:51;97922.11;;;11.47;31.02
30856;BME280;17570;0.000;0.000;2023-02-12T05:33:18;97925.20;;;11.78;31.55
30856;BME280;17570;0.000;0.000;2023-02-12T05:35:46;97916.68;;;11.76;32.44
30856;BME280;17570;0.000;0.000;2023-02-12T05:38:13;97915.42;;;11.56;31.28
30856;BME280;17570;0.000;0.000;2023-02-12T05:40:41;97926.89;;;11.66;31.08
30856;BME280;17570;0.000;0.000;2023-02-12T05:43:09;97919.48;;;11.73;32.04
30856;BME280;17570;0.000;0.000;2023-02-12T05:45:36;97922.52;;;11.67;31.44
30856;BME280;17570;0.000;0.000;2023-02-12T05:48:06;97931.88;;;11.57;31.30
30856;BME280;17570;0.000;0.000;2023-02-12T05:50:33;97932.29;;;11.63;32.52
30856;BME280;17570;0.000;0.000;2023-02-12T05:53:03;97936.03;;;11.72;32.26
30856;BME280;17570;0.000;0.000;2023-02-12T05:55:30;97949.86;;;11.60;31.59
30856;BME280;17570;0.000;0.000;2023-02-12T05:57:58;97947.06;;;11.75;31.67
30856;BME280;17570;0.000;0.000;2023-02-12T06:00:25;97945.72;;;11.83;32.20
30856;BME280;17570;0.000;0.000;2023-02-12T06:02:52;97945.17;;;11.78;32.63
30856;BME280;17570;0.000;0.000;2023-02-12T06:05:20;97954.35;;;11.70;31.45
30856;BME280;17570;0.000;0.000;2023-02-12T06:07:47;97953.92;;;11.77;32.53
30856;BME280;17570;0.000;0.000;2023-02-12T06:10:15;97963.38;;;11.78;33.19
30856;BME280;17570;0.000;0.000;2023-02-12T06:12:42;97969.02;;;11.71;34.03
30856;BME280;17570;0.000;0.000;2023-02-12T06:15:10;97967.98;;;11.61;33.89
30856;BME280;17570;0.000;0.000;2023-02-12T06:17:37;97976.80;;;11.59;33.77
30856;BME280;17570;0.000;0.000;2023-02-12T06:20:05;97979.59;;;11.56;33.74
30856;BME280;17570;0.000;0.000;2023-02-12T06:22:33;97985.94;;;11.52;33.40
30856;BME280;17570;0.000;0.000;2023-02-12T06:25:00;97980.13;;;11.48;34.09
30856;BME280;17570;0.000;0.000;2023-02-12T06:27:28;97984.58;;;11.46;32.81
30856;BME280;17570;0.000;0.000;2023-02-12T06:29:55;97982.83;;;11.59;32.46
30856;BME280;17570;0.000;0.000;2023-02-12T06:32:23;97983.80;;;11.84;32.74
30856;BME280;17570;0.000;0.000;2023-02-12T06:34:50;97988.25;;;11.82;33.50
30856;BME280;17570;0.000;0.000;2023-02-12T06:37:18;97995.22;;;11.68;33.34
30856;BME280;17570;0.000;0.000;2023-02-12T06:39:45;97983.47;;;11.63;33.27
30856;BME280;17570;0.000;0.000;2023-02-12T06:42:13;98001.05;;;11.72;32.72
30856;BME280;17570;0.000;0.000;2023-02-12T06:44:40;98006.70;;;11.91;32.91
30856;BME280;17570;0.000;0.000;2023-02-12T06:47:08;98004.80;;;11.81;32.80
30856;BME280;17570;0.000;0.000;2023-02-12T06:49:36;98005.11;;;11.76;32.97
30856;BME280;17570;0.000;0.000;2023-02-12T06:52:03;98010.63;;;11.71;33.22
30856;BME280;17570;0.000;0.000;2023-02-12T06:54:31;98007.39;;;11.68;34.19
30856;BME280;17570;0.000;0.000;2023-02-12T06:57:01;98024.02;;;11.65;33.73
30856;BME280;17570;0.000;0.000;2023-02-12T06:59:28;98018.81;;;11.65;33.35
30856;BME280;17570;0.000;0.000;2023-02-12T07:01:55;98021.53;;;11.64;33.34
30856;BME280;17570;0.000;0.000;2023-02-12T07:04:22;98022.36;;;11.64;32.92
30856;BME280;17570;0.000;0.000;2023-02-12T07:06:50;98024.12;;;11.64;32.98
30856;BME280;17570;0.000;0.000;2023-02-12T07:09:17;98030.73;;;11.82;32.48
30856;BME280;17570;0.000;0.000;2023-02-12T07:11:45;98032.59;;;11.93;32.52
30856;BME280;17570;0.000;0.000;2023-02-12T07:14:13;98032.20;;;11.99;31.70
30856;BME280;17570;0.000;0.000;2023-02-12T07:16:41;98045.62;;;12.06;32.17
30856;BME280;17570;0.000;0.000;2023-02-12T07:19:10;98041.98;;;11.95;32.13
30856;BME280;17570;0.000;0.000;2023-02-12T07:21:37;98038.75;;;11.92;32.01
30856;BME280;17570;0.000;0.000;2023-02-12T07:24:05;98035.12;;;11.94;31.34
30856;BME280;17570;0.000;0.000;2023-02-12T07:26:33;98039.38;;;11.95;31.21
30856;BME280;17570;0.000;0.000;2023-02-12T07:29:01;98046.24;;;11.96;31.34
30856;BME280;17570;0.000;0.000;2023-02-12T07:31:28;98045.92;;;12.01;31.52
30856;BME280;17570;0.000;0.000;2023-02-12T07:33:56;98045.10;;;12.00;31.64
30856;BME280;17570;0.000;0.000;2023-02-12T07:36:25;98050.94;;;12.04;31.80
30856;BME280;17570;0.000;0.000;2023-02-12T07:38:53;98049.87;;;12.07;31.95
30856;BME280;17570;0.000;0.000;2023-02-12T07:41:26;98045.19;;;12.12;32.04
30856;BME280;17570;0.000;0.000;2023-02-12T07:43:54;98046.65;;;12.16;31.87
30856;BME280;17570;0.000;0.000;2023-02-12T07:46:23;98044.56;;;12.21;31.74
30856;BME280;17570;0.000;0.000;2023-02-12T07:48:53;98054.66;;;12.25;31.48
30856;BME280;17570;0.000;0.000;2023-02-12T07:51:20;98039.47;;;12.32;31.66
30856;BME280;17570;0.000;0.000;2023-02-12T07:53:48;98034.95;;;12.47;31.07
30856;BME280;17570;0.000;0.000;2023-02-12T07:56:16;98035.02;;;12.58;30.37
30856;BME280;17570;0.000;0.000;2023-02-12T07:58:44;98038.99;;;12.64;30.29
30856;BME280;17570;0.000;0.000;2023-02-12T08:01:16;98043.76;;;12.70;28.94
30856;BME280;17570;0.000;0.000;2023-02-12T08:03:44;98044.05;;;12.78;29.05
30856;BME280;17570;0.000;0.000;2023-02-12T08:06:14;98039.34;;;12.83;28.79
30856;BME280;17570;0.000;0.000;2023-02-12T08:08:42;98043.48;;;12.86;28.36
30856;BME280;17570;0.000;0.000;2023-02-12T08:11:10;98049.31;;;12.89;28.65
30856;BME280;17570;0.000;0.000;2023-02-12T08:13:37;98052.22;;;12.97;28.59
30856;BME280;17570;0.000;0.000;2023-02-12T08:16:08;98054.87;;;13.09;28.66
30856;BME280;17570;0.000;0.000;2023-02-12T08:18:34;98043.41;;;13.11;28.30
30856;BME280;17570;0.000;0.000;2023-02-12T08:21:06;98054.94;;;13.20;28.08
30856;BME280;17570;0.000;0.000;2023-02-12T08:23:34;98048.56;;;13.24;27.96
30856;BME280;17570;0.000;0.000;2023-02-12T08:26:05;98049.19;;;13.27;27.66
30856;BME280;17570;0.000;0.000;2023-02-12T08:28:32;98055.50;;;13.36;27.31
30856;BME280;17570;0.000;0.000;2023-02-12T08:31:04;98054.55;;;13.37;28.21
30856;BME280;17570;0.000;0.000;2023-02-12T08:33:32;98059.19;;;13.34;27.57
30856;BME280;17570;0.000;0.000;2023-02-12T08:36:06;98066.67;;;13.38;27.40
30856;BME280;17570;0.000;0.000;2023-02-12T08:38:36;98056.83;;;13.42;27.32
30856;BME280;17570;0.000;0.000;2023-02-12T08:41:12;98058.94;;;13.37;27.36
30856;BME280;17570;0.000;0.000;2023-02-12T08:43:37;98062.99;;;13.41;27.74
30856;BME280;17570;0.000;0.000;2023-02-12T08:46:06;98051.18;;;13.48;27.38
30856;BME280;17570;0.000;0.000;2023-02-12T08:48:34;98061.15;;;13.54;27.93
30856;BME280;17570;0.000;0.000;2023-02-12T08:51:05;98063.30;;;13.60;27.49
30856;BME280;17570;0.000;0.000;2023-02-12T08:53:33;98059.39;;;13.66;27.30
30856;BME280;17570;0.000;0.000;2023-02-12T08:56:02;98057.39;;;13.69;27.10
30856;BME280;17570;0.000;0.000;2023-02-12T08:58:29;98058.70;;;13.75;27.08
30856;BME280;17570;0.000;0.000;2023-02-12T09:00:57;98067.02;;;13.80;27.15
30856;BME280;17570;0.000;0.000;2023-02-12T09:03:24;98064.19;;;13.83;26.42
30856;BME280;17570;0.000;0.000;2023-02-12T09:05:52;98068.45;;;13.84;26.49
30856;BME280;17570;0.000;0.000;2023-02-12T09:08:19;98080.94;;;13.92;27.08
30856;BME280;17570;0.000;0.000;2023-02-12T09:10:47;98082.16;;;13.99;26.95
30856;BME280;17570;0.000;0.000;2023-02-12T09:13:14;98084.42;;;14.03;27.28
30856;BME280;17570;0.000;0.000;2023-02-12T09:15:42;98083.47;;;14.04;26.40
30856;BME280;17570;0.000;0.000;2023-02-12T09:18:11;98084.77;;;14.10;26.53
30856;BME280;17570;0.000;0.000;2023-02-12T09:20:40;98088.91;;;14.13;26.54
30856;BME280;17570;0.000;0.000;2023-02-12T09:23:09;98093.56;;;14.09;26.60
30856;BME280;17570;0.000;0.000;2023-02-12T09:25:43;98102.48;;;14.18;26.87
30856;BME280;17570;0.000;0.000;2023-02-12T09:28:11;98099.17;;;14.27;26.31
30856;BME280;17570;0.000;0.000;2023-02-12T09:30:40;98098.09;;;14.29;26.27
30856;BME280;17570;0.000;0.000;2023-02-12T09:33:08;98100.12;;;14.37;26.29
30856;BME280;17570;0.000;0.000;2023-02-12T09:35:37;98109.27;;;14.43;26.04
30856;BME280;17570;0.000;0.000;2023-02-12T09:38:05;98111.52;;;14.47;26.02
30856;BME280;17570;0.000;0.000;2023-02-12T09:43:09;98119.17;;;14.50;26.29
30856;BME280;17570;0.000;0.000;2023-02-12T09:45:36;98127.70;;;14.64;27.62
30856;BME280;17570;0.000;0.000;2023-02-12T09:48:17;98112.86;;;14.75;27.74
30856;BME280;17570;0.000;0.000;2023-02-12T09:50:50;98106.55;;;14.78;28.07
30856;BME280;17570;0.000;0.000;2023-02-12T09:53:17;98101.32;;;14.78;26.87
30856;BME280;17570;0.000;0.000;2023-02-12T09:55:45;98106.55;;;14.78;26.53
30856;BME280;17570;0.000;0.000;2023-02-12T09:58:19;98107.74;;;14.85;26.72
30856;BME280;17570;0.000;0.000;2023-02-12T10:00:42;98106.55;;;14.89;26.22
30856;BME280;17570;0.000;0.000;2023-02-12T10:03:14;98111.55;;;14.92;26.20
30856;BME280;17570;0.000;0.000;2023-02-12T10:05:43;98115.92;;;14.92;25.54
30856;BME280;17570;0.000;0.000;2023-02-12T10:16:30;98099.88;;;14.96;25.89
30856;BME280;17570;0.000;0.000;2023-02-12T10:21:32;98100.10;;;15.04;25.79
30856;BME280;17570;0.000;0.000;2023-02-12T10:26:38;98095.52;;;15.29;24.36
30856;BME280;17570;0.000;0.000;2023-02-12T10:29:36;98097.61;;;15.46;24.63
30856;BME280;17570;0.000;0.000;2023-02-12T10:31:39;98108.05;;;15.58;25.05
30856;BME280;17570;0.000;0.000;2023-02-12T10:34:23;98108.03;;;15.69;27.04
30856;BME280;17570;0.000;0.000;2023-02-12T10:36:51;98100.83;;;15.82;25.49
30856;BME280;17570;0.000;0.000;2023-02-12T10:39:25;98097.69;;;15.88;25.16
30856;BME280;17570;0.000;0.000;2023-02-12T10:42:01;98092.14;;;16.02;25.29
30856;BME280;17570;0.000;0.000;2023-02-12T10:44:26;98095.39;;;16.16;25.12
30856;BME280;17570;0.000;0.000;2023-02-12T10:46:54;98094.91;;;16.31;26.17
30856;BME280;17570;0.000;0.000;2023-02-12T10:49:22;98103.97;;;16.48;26.01
30856;BME280;17570;0.000;0.000;2023-02-12T10:54:38;98094.88;;;16.83;25.45
30856;BME280;17570;0.000;0.000;2023-02-12T10:57:10;98097.70;;;17.01;25.26
30856;BME280;17570;0.000;0.000;2023-02-12T10:59:39;98093.04;;;17.14;25.46
30856;BME280;17570;0.000;0.000;2023-02-12T11:02:23;98095.57;;;17.35;26.48
30856;BME280;17570;0.000;0.000;2023-02-12T11:04:51;98104.95;;;17.57;26.05
30856;BME280;17570;0.000;0.000;2023-02-12T11:07:20;98106.64;;;17.68;26.17
30856;BME280;17570;0.000;0.000;2023-02-12T11:09:48;98115.36;;;17.88;25.99
30856;BME280;17570;0.000;0.000;2023-02-12T11:12:28;98110.35;;;18.04;25.65
30856;BME280;17570;0.000;0.000;2023-02-12T11:14:59;98118.77;;;18.17;24.91
30856;BME280;17570;0.000;0.000;2023-02-12T11:17:36;98121.80;;;18.22;23.80
30856;BME280;17570;0.000;0.000;2023-02-12T11:20:04;98124.41;;;18.32;23.66
30856;BME280;17570;0.000;0.000;2023-02-12T11:22:31;98130.61;;;18.41;23.33
30856;BME280;17570;0.000;0.000;2023-02-12T11:24:59;98125.08;;;18.44;22.97
30856;BME280;17570;0.000;0.000;2023-02-12T11:27:33;98117.31;;;18.52;23.06
30856;BME280;17570;0.000;0.000;2023-02-12T11:30:10;98121.41;;;18.64;23.48
30856;BME280;17570;0.000;0.000;2023-02-12T11:32:32;98133.56;;;18.84;24.26
30856;BME280;17570;0.000;0.000;2023-02-12T11:35:17;98131.81;;;19.03;24.79
30856;BME280;17570;0.000;0.000;2023-02-12T11:37:42;98134.88;;;19.26;24.78
30856;BME280;17570;0.000;0.000;2023-02-12T11:40:24;98137.22;;;19.47;24.82
30856;BME280;17570;0.000;0.000;2023-02-12T11:42:57;98133.73;;;19.74;24.75
30856;BME280;17570;0.000;0.000;2023-02-12T11:45:21;98131.75;;;19.94;24.28
30856;BME280;17570;0.000;0.000;2023-02-12T11:47:49;98133.74;;;20.18;24.00
30856;BME280;17570;0.000;0.000;2023-02-12T11:50:24;98132.59;;;20.38;23.62
30856;BME280;17570;0.000;0.000;2023-02-12T11:52:54;98143.61;;;20.59;23.35
30856;BME280;17570;0.000;0.000;2023-02-12T11:55:30;98135.11;;;20.74;23.48
30856;BME280;17570;0.000;0.000;2023-02-12T11:58:04;98143.13;;;20.98;23.32
30856;BME280;17570;0.000;0.000;2023-02-12T12:00:35;98135.33;;;21.23;23.51
30856;BME280;17570;0.000;0.000;2023-02-12T12:05:47;98134.45;;;21.73;23.59
30856;BME280;17570;0.000;0.000;2023-02-12T12:08:18;98129.20;;;21.97;23.55
30856;BME280;17570;0.000;0.000;2023-02-12T12:10:45;98133.00;;;22.27;23.29
30856;BME280;17570;0.000;0.000;2023-02-12T12:13:17;98130.98;;;22.54;22.89
30856;BME280;17570;0.000;0.000;2023-02-12T12:15:47;98142.63;;;22.84;22.69
30856;BME280;17570;0.000;0.000;2023-02-12T12:18:31;98141.59;;;23.09;22.40
30856;BME280;17570;0.000;0.000;2023-02-12T12:21:11;98148.92;;;23.30;22.52
30856;BME280;17570;0.000;0.000;2023-02-12T12:23:39;98149.78;;;23.54;22.34
30856;BME280;17570;0.000;0.000;2023-02-12T12:26:08;98150.84;;;23.76;21.89
30856;BME280;17570;0.000;0.000;2023-02-12T12:28:46;98156.20;;;23.90;21.41
30856;BME280;17570;0.000;0.000;2023-02-12T12:31:33;98158.08;;;24.05;20.86
30856;BME280;17570;0.000;0.000;2023-02-12T12:33:49;98156.53;;;24.10;20.60
30856;BME280;17570;0.000;0.000;2023-02-12T12:41:38;98155.84;;;24.16;19.72
30856;BME280;17570;0.000;0.000;2023-02-12T12:46:47;98161.93;;;24.02;18.46
30856;BME280;17570;0.000;0.000;2023-02-12T13:02:36;98194.59;;;21.71;17.84
30856;BME280;17570;0.000;0.000;2023-02-12T13:05:05;98194.09;;;21.75;17.63
30856;BME280;17570;0.000;0.000;2023-02-12T13:15:38;98208.47;;;21.81;17.04
30856;BME280;17570;0.000;0.000;2023-02-12T13:20:44;98215.55;;;21.22;18.65
30856;BME280;17570;0.000;0.000;2023-02-12T13:23:29;98223.02;;;21.00;18.71
30856;BME280;17570;0.000;0.000;2023-02-12T13:26:12;98220.38;;;21.00;18.39
30856;BME280;17570;0.000;0.000;2023-02-12T13:28:39;98211.82;;;21.06;18.67
30856;BME280;17570;0.000;0.000;2023-02-12T13:31:06;98211.44;;;21.27;19.22
30856;BME280;17570;0.000;0.000;2023-02-12T13:33:41;98210.37;;;21.46;19.67
30856;BME280;17570;0.000;0.000;2023-02-12T13:36:09;98208.77;;;21.61;18.93
30856;BME280;17570;0.000;0.000;2023-02-12T13:38:39;98212.09;;;21.72;18.83
30856;BME280;17570;0.000;0.000;2023-02-12T13:41:08;98219.39;;;21.86;18.68
30856;BME280;17570;0.000;0.000;2023-02-12T13:43:44;98217.61;;;22.03;19.55
30856;BME280;17570;0.000;0.000;2023-02-12T13:46:17;98217.16;;;22.15;19.54
30856;BME280;17570;0.000;0.000;2023-02-12T13:48:43;98224.91;;;22.33;19.31
30856;BME280;17570;0.000;0.000;2023-02-12T13:51:27;98216.80;;;22.51;19.35
30856;BME280;17570;0.000;0.000;2023-02-12T14:02:02;98238.09;;;22.09;17.38
30856;BME280;17570;0.000;0.000;2023-02-12T14:04:45;98258.32;;;21.68;17.64
30856;BME280;17570;0.000;0.000;2023-02-12T14:07:14;98255.25;;;21.38;18.02
30856;BME280;17570;0.000;0.000;2023-02-12T14:09:43;98256.29;;;20.93;19.03
30856;BME280;17570;0.000;0.000;2023-02-12T14:14:52;98268.28;;;20.26;19.78
30856;BME280;17570;0.000;0.000;2023-02-12T14:25:26;98286.34;;;19.10;21.28
30856;BME280;17570;0.000;0.000;2023-02-12T14:27:59;98291.08;;;18.97;21.29
30856;BME280;17570;0.000;0.000;2023-02-12T14:30:28;98299.44;;;18.73;22.14
30856;BME280;17570;0.000;0.000;2023-02-12T14:32:58;98301.08;;;18.55;23.97
30856;BME280;17570;0.000;0.000;2023-02-12T14:37:55;98313.54;;;18.24;23.11
30856;BME280;17570;0.000;0.000;2023-02-12T14:45:52;98338.11;;;17.63;23.46
30856;BME280;17570;0.000;0.000;2023-02-12T14:51:05;98336.45;;;17.31;24.55
30856;BME280;17570;0.000;0.000;2023-02-12T14:53:34;98350.88;;;17.16;24.61
30856;BME280;17570;0.000;0.000;2023-02-12T14:56:03;98351.27;;;17.12;25.45
30856;BME280;17570;0.000;0.000;2023-02-12T14:58:33;98357.38;;;17.01;24.95
30856;BME280;17570;0.000;0.000;2023-02-12T15:01:01;98349.45;;;16.91;24.90
30856;BME280;17570;0.000;0.000;2023-02-12T15:06:16;98357.29;;;16.70;25.55
30856;BME280;17570;0.000;0.000;2023-02-12T15:11:33;98367.27;;;16.44;25.59